SM7GXQ Farjestaden SE current weather conditions

sailwx.info

Wind from 044 at 3 knots gusting 6

Air temperature 18.9° C
Dewpoint 16.5° C

Last reported at 2020-Aug-10 18:00 UTC.
Time now 2020-Aug-10 18:32 UTC

Location: N 56°39' E 016°28'.
View on Google Maps.

See reports from other nearby stations

  
Tides and Currents Weather Stations Pressure Air Temp Water Temp Dewpoint Dewpoint Depression Visibility Wind Speed Wind Dir Waves Ship Positions
date/time (UTC)wind fromknots sea level pressurealtimeterstation pressurevisibilityair tempwater tempwave heightnotes
2020-Aug-10 18:00 044 3 gusting 6 18.9
2020-Aug-10 17:45 053 3 gusting 6 18.9
2020-Aug-10 17:30 028 2 gusting 6 18.9
2020-Aug-10 17:15 032 4 gusting 8 18.9
2020-Aug-10 16:15 002 9 gusting 15 18.9
2020-Aug-10 15:45 003 11 gusting 17 19.4
2020-Aug-10 15:30 20.6
2020-Aug-10 15:00 001 9 gusting 14 20.6
2020-Aug-10 14:30 358 10 gusting 17 20.0
2020-Aug-10 14:15 359 10 gusting 15 20.6
2020-Aug-10 14:00 357 7 gusting 14 20.6
2020-Aug-10 13:30 010 11 gusting 15 20.0
2020-Aug-10 12:45 004 10 gusting 14 20.6
2020-Aug-10 11:45 071 4 gusting 8 22.8
2020-Aug-10 11:30 051 2 gusting 6 22.8
2020-Aug-10 10:45 059 5 gusting 10 21.1
2020-Aug-10 10:30 005 7 gusting 13 20.0
2020-Aug-10 10:15 003 6 gusting 10 20.0
2020-Aug-10 09:45 002 7 gusting 10 20.6
2020-Aug-10 09:30 064 4 gusting 10 20.0
2020-Aug-10 09:15 022 5 gusting 10 20.0
2020-Aug-10 09:00 028 5 gusting 10 19.4
2020-Aug-10 08:45 003 6 gusting 11 18.9
2020-Aug-10 08:15 019 4 gusting 7 18.9
2020-Aug-10 08:00 012 4 gusting 8 18.9
2020-Aug-10 07:45 033 3 gusting 6 18.9
2020-Aug-10 07:15 034 1 gusting 6 18.9
2020-Aug-10 07:00 044 4 gusting 6 18.9
2020-Aug-10 06:45 057 4 gusting 6 18.9
2020-Aug-10 06:00 075 2 gusting 6 18.9
2020-Aug-10 05:45 072 2 gusting 6 18.9
2020-Aug-10 05:30 043 2 gusting 8 18.9
2020-Aug-10 05:15 022 3 gusting 6 18.9
2020-Aug-10 04:45 037 2 gusting 6 18.9
2020-Aug-10 04:30 076 2 gusting 8 18.9
2020-Aug-10 04:00 066 3 gusting 8 18.9
2020-Aug-10 03:45 079 2 gusting 6 18.9
2020-Aug-10 03:30 059 3 gusting 8 18.9
2020-Aug-10 02:45 072 3 gusting 6 19.4
2020-Aug-10 02:30 068 2 gusting 8 19.4
2020-Aug-10 02:00 032 2 gusting 5 19.4
2020-Aug-10 01:45 005 4 gusting 6 18.9
2020-Aug-10 01:30 015 4 gusting 5 18.9
2020-Aug-10 01:00 025 3 gusting 6 18.9
2020-Aug-10 00:45 030 3 gusting 4 18.9
2020-Aug-10 00:30 030 18.3
2020-Aug-09 23:45 052 18.3
2020-Aug-09 23:30 060 17.8
2020-Aug-09 23:15 020 17.8
2020-Aug-09 23:00 036 17.8
2020-Aug-09 22:45 041 17.8
2020-Aug-09 22:15 040 17.8
2020-Aug-09 21:45 039 17.8
2020-Aug-09 21:30 034 17.8
2020-Aug-09 20:45 031 18.3
2020-Aug-09 20:30 030 18.3
2020-Aug-09 20:15 030 18.9
2020-Aug-09 20:00 025 18.9
2020-Aug-09 19:30 163 19.4
2020-Aug-09 19:15 163 20.0
2020-Aug-09 19:00 163 20.6
2020-Aug-09 18:30 115 0 gusting 2 21.7
2020-Aug-09 18:15 150 1 gusting 2 22.2
2020-Aug-09 18:00 141 0 gusting 2 22.8
2020-Aug-09 17:45 139 1 gusting 4 22.8
2020-Aug-09 17:30 133 0 gusting 2 23.3
2020-Aug-09 17:15 134 0 gusting 2 23.3
2020-Aug-09 17:00 115 0 gusting 5 23.3
2020-Aug-09 16:45 141 0 gusting 4 23.3
2020-Aug-09 15:45 111 2 gusting 6 24.4
2020-Aug-09 15:15 139 3 gusting 5 25.0
2020-Aug-09 14:45 142 1 gusting 6 25.0
2020-Aug-09 14:30 139 2 gusting 6 24.4
2020-Aug-09 14:00 031 0 gusting 6 24.4
2020-Aug-09 13:45 036 3 gusting 6 24.4
2020-Aug-09 13:30 332 4 gusting 6 25.0
2020-Aug-09 13:15 343 25.6
2020-Aug-09 13:00 334 26.1
2020-Aug-09 12:30 263 26.7
2020-Aug-09 12:15 282 26.1
2020-Aug-09 11:45 343 24.4
2020-Aug-09 11:30 345 23.9
2020-Aug-09 11:15 346 23.9
2020-Aug-09 11:00 341 23.3
2020-Aug-09 10:30 338 23.9
2020-Aug-09 10:00 307 22.8
2020-Aug-09 09:45 341 22.8
2020-Aug-09 09:15 317 22.8
2020-Aug-09 08:45 040 22.8
2020-Aug-09 08:30 323 21.1
2020-Aug-09 08:15 323 21.1
2020-Aug-09 08:00 329 20.6
2020-Aug-09 07:45 348 20.0
2020-Aug-09 07:30 346 20.0
2020-Aug-09 07:15 20.0
2020-Aug-09 07:00 346 20.0
2020-Aug-09 06:45 042 19.4
2020-Aug-09 06:30 018 18.9
2020-Aug-09 06:15 019 18.9
2020-Aug-09 06:00 358 18.9
2020-Aug-09 05:30 118 18.3
2020-Aug-09 05:15 148 18.3
2020-Aug-09 05:00 148 17.8
2020-Aug-09 04:45 148 17.2
2020-Aug-09 04:30 148 16.7
2020-Aug-09 04:15 148 16.7
2020-Aug-09 04:00 148 16.1
2020-Aug-09 03:45 148 16.1
2020-Aug-09 03:00 148 16.1
2020-Aug-09 02:30 148 16.7
2020-Aug-09 02:15 148 16.7
2020-Aug-09 02:00 148 16.7
2020-Aug-09 01:45 148 16.7
2020-Aug-09 01:15 143 17.2
2020-Aug-09 01:00 144 17.2
2020-Aug-09 00:45 141 17.2
2020-Aug-09 00:15 140 17.2
2020-Aug-09 00:00 139 17.2
2020-Aug-08 23:45 147 17.2
2020-Aug-08 23:30 135 17.2
2020-Aug-08 23:00 145 17.2
2020-Aug-08 22:45 138 17.8
2020-Aug-08 22:30 142 17.8
2020-Aug-08 22:15 142 17.8
2020-Aug-08 22:00 134 17.8
2020-Aug-08 21:45 159 18.3
2020-Aug-08 21:30 208 18.3
2020-Aug-08 21:00 208 18.9
2020-Aug-08 20:45 208 18.9
2020-Aug-08 20:15 208 18.9
2020-Aug-08 20:00 208 19.4
2020-Aug-08 19:45 208 19.4
2020-Aug-08 19:30 208 0 gusting 1 19.4
2020-Aug-08 19:15 339 0 gusting 1 19.4
2020-Aug-08 19:00 342 0 gusting 0 20.0
2020-Aug-08 18:00 355 20.6